KDTL/DTL METAR and TAF weather

Enter ICAO airport designator
Station Type Date Time Source
KDTL METAR 2021/09/23 23:15 UTC NOAA

KDTL 232315Z AUTO 17006KT 10SM CLR 21/09 A2988 RMK AO2


Station Type Date Time Source
KDTL Decoded METAR 2021/09/23 23:15 UTC NOAA

Detroit Lakes, Detroit Lakes Airport-Wething Field, MN, United States (KDTL) 46-50N 095-53W
Sep 23, 2021 - 07:15 PM EDT / 2021.09.23 2315 UTC
Wind: from the S (170 degrees) at 7 MPH (6 KT):0
Visibility: 10 mile(s):0
Sky conditions: clear
Temperature: 69 F (21 C)
Dew Point: 48 F (9 C)
Relative Humidity: 46%
Pressure (altimeter): 29.88 in. Hg (1011 hPa)
ob: KDTL 232315Z AUTO 17006KT 10SM CLR 21/09 A2988 RMK AO2
cycle: 23

Station Type Date Time Source
KDTL TAF UTC NOAA

Error!

Example: see airport list